Jordan Valley, OR (97910)

1:44 AM MST on December 09, 2016 (GMT -0700)
Caldwell Industrial | | Change Station

Elev 2428 ft 43.64 °N, 116.64 °W | Updated 48 minutes ago

Overcast
Overcast
27 °F
Feels Like 27 °F
N
0
Wind Variable Wind from North

Today
High -- | Low -- °F
--% Chance of Precip.
Yesterday
High -- | Low -- °F
Precip. -- in
Pressure 30.24 in
Visibility 9.0 miles
Clouds Mostly Cloudy 3600 ft
Overcast 6000 ft
Dew Point 23 °F
Humidity 85%
Rainfall 0.00 in
Snow Depth Not available.
8:08 AM 5:13 PM
Waxing Gibbous, 72% visible
METAR KEUL 090756Z AUTO 00000KT 9SM -SN BKN036 OVC060 M03/M05 A3015 RMK AO2 SNB17 SLP238 P0000 T10281050 FZRANO
Pressure 30.24 in
Visibility 9.0 miles
Clouds Mostly Cloudy 3600 ft
Overcast 6000 ft
Dew Point 23 °F
Humidity 85%
Rainfall 0.00 in
Snow Depth Not available.
8:08 AM 5:13 PM
Waxing Gibbous, 72% visible
METAR KEUL 090756Z AUTO 00000KT 9SM -SN BKN036 OVC060 M03/M05 A3015 RMK AO2 SNB17 SLP238 P0000 T10281050 FZRANO

10-Day Weather Forecast

Almanac

Astronomy

Dec. 09, 2016 Rise Set
Actual Time
Civil Twilight
Nautical Twilight
Astronomical Twilight
Moon
Length of Visible Light
Length of Day
Tomorrow will be .
, % of the Moon is Illuminated

Today's Extremes

State Highs State Lows

Community

WunderPhotos

Upload Photos

1,956,371 photos uploaded!

WunderBlog® & News

Nearby

Air Quality

  Air Quality AQ Index Pollutant
Not available.

Snow Depth

Station Depth Elevation

Earthquake Activity

City Distance Mag. Time & Date
Minimum magnitude displayed is 2.5.

Coastal Water Temperatures

Place Temperature

Stations

Nearby Weather Stations

Station Location Temp. Windchill Dew Point Humidity Wind Precip. Elev Updated Type
                   

Watches & Warnings

There are currently no watches in effect.